createdAt,value
2022-12-09T00:01:19.510Z,98436.16
2022-12-09T00:03:47.197Z,98437.46
2022-12-09T00:06:17.434Z,98436.21
2022-12-09T00:08:45.065Z,98433.56
2022-12-09T00:11:13.432Z,98429.55
2022-12-09T00:13:41.145Z,98433.06
2022-12-09T00:16:10.750Z,98435.15
2022-12-09T00:18:38.357Z,98434.79
2022-12-09T00:21:34.222Z,98430.72
2022-12-09T00:24:02.572Z,98429.90
2022-12-09T00:26:29.444Z,98427.92
2022-12-09T00:28:57.253Z,98427.50
2022-12-09T00:31:27.119Z,98432.67
2022-12-09T00:33:59.874Z,98436.02
2022-12-09T00:36:28.500Z,98439.75
2022-12-09T00:38:57.253Z,98441.39
2022-12-09T00:41:24.209Z,98437.10
2022-12-09T00:43:51.455Z,98436.84
2022-12-09T00:46:18.591Z,98436.86
2022-12-09T00:48:46.361Z,98441.14
2022-12-09T00:51:16.631Z,98444.58
2022-12-09T00:53:43.552Z,98446.11
2022-12-09T00:56:10.556Z,98439.21
2022-12-09T00:58:37.297Z,98437.52
2022-12-09T01:01:04.152Z,98442.48
2022-12-09T01:03:31.211Z,98442.17
2022-12-09T01:05:58.089Z,98438.20
2022-12-09T01:08:25.202Z,98440.64
2022-12-09T01:10:52.259Z,98432.23
2022-12-09T01:13:19.095Z,98429.40
2022-12-09T01:15:47.565Z,98431.77
2022-12-09T01:18:14.401Z,98433.45
2022-12-09T01:20:41.272Z,98437.14
2022-12-09T01:23:08.557Z,98440.82
2022-12-09T01:25:38.064Z,98439.62
2022-12-09T01:28:05.079Z,98441.21
2022-12-09T01:30:32.106Z,98448.29
2022-12-09T01:32:58.850Z,98450.25
2022-12-09T01:35:26.496Z,98453.94
2022-12-09T01:37:53.213Z,98447.66
2022-12-09T01:40:20.239Z,98446.97
2022-12-09T01:42:50.061Z,98448.31
2022-12-09T01:45:21.359Z,98448.33
2022-12-09T01:48:00.364Z,98445.05
2022-12-09T01:50:28.925Z,98446.66
2022-12-09T01:52:56.877Z,98446.86
2022-12-09T01:55:25.517Z,98446.84
2022-12-09T01:57:53.606Z,98444.30
2022-12-09T02:00:20.925Z,98440.47
2022-12-09T02:02:51.590Z,98447.61
2022-12-09T02:05:21.892Z,98443.84
2022-12-09T02:07:53.808Z,98441.83
2022-12-09T02:10:22.555Z,98441.94
2022-12-09T02:13:36.609Z,98439.94
2022-12-09T02:16:09.676Z,98441.34
2022-12-09T02:18:45.980Z,98440.68
2022-12-09T02:21:28.995Z,98437.58
2022-12-09T02:24:08.311Z,98437.27
2022-12-09T02:26:44.056Z,98435.84
2022-12-09T02:29:37.381Z,98436.50
2022-12-09T02:32:22.950Z,98435.27
2022-12-09T02:35:13.022Z,98431.33
2022-12-09T02:37:56.550Z,98429.96
2022-12-09T02:40:35.489Z,98432.73
2022-12-09T02:43:06.560Z,98429.56
2022-12-09T02:45:36.505Z,98426.40
2022-12-09T02:48:05.207Z,98423.02
2022-12-09T02:50:36.759Z,98421.29
2022-12-09T02:53:09.896Z,98422.05
2022-12-09T02:55:40.007Z,98421.98
2022-12-09T02:58:06.925Z,98422.55
2022-12-09T03:00:34.986Z,98421.53
2022-12-09T03:03:04.745Z,98422.98
2022-12-09T03:05:55.729Z,98421.90
2022-12-09T03:08:28.512Z,98421.80
2022-12-09T03:11:07.128Z,98421.82
2022-12-09T03:13:51.256Z,98419.94
2022-12-09T03:16:36.651Z,98421.30
2022-12-09T03:19:06.693Z,98422.33
2022-12-09T03:21:40.679Z,98427.13
2022-12-09T03:24:09.784Z,98430.07
2022-12-09T03:26:38.360Z,98426.34
2022-12-09T03:29:09.261Z,98423.57
2022-12-09T03:31:38.233Z,98420.76
2022-12-09T03:34:08.539Z,98412.34
2022-12-09T03:36:40.956Z,98413.52
2022-12-09T03:39:16.503Z,98414.09
2022-12-09T03:41:47.705Z,98417.68
2022-12-09T03:44:25.441Z,98413.48
2022-12-09T03:46:52.685Z,98411.19
2022-12-09T03:49:19.770Z,98408.89
2022-12-09T03:51:56.619Z,98410.27
2022-12-09T03:54:33.364Z,98410.48
2022-12-09T03:57:01.357Z,98412.27
2022-12-09T03:59:32.881Z,98418.85
2022-12-09T04:02:03.524Z,98419.45
2022-12-09T04:04:30.586Z,98416.00
2022-12-09T04:06:58.119Z,98415.98
2022-12-09T04:09:25.313Z,98414.86
2022-12-09T04:11:52.464Z,98410.93
2022-12-09T04:14:19.353Z,98413.49
2022-12-09T04:16:46.335Z,98414.40
2022-12-09T04:19:13.211Z,98412.13
2022-12-09T04:21:40.440Z,98412.41
2022-12-09T04:24:07.978Z,98412.61
2022-12-09T04:26:35.673Z,98409.48
2022-12-09T04:29:03.104Z,98411.58
2022-12-09T04:31:29.986Z,98411.91
2022-12-09T04:33:56.950Z,98408.10
2022-12-09T04:36:24.377Z,98407.27
2022-12-09T04:38:51.725Z,98408.77
2022-12-09T04:41:19.604Z,98408.48
2022-12-09T04:43:48.734Z,98409.96
2022-12-09T04:46:17.967Z,98408.27
2022-12-09T04:48:45.743Z,98404.95
2022-12-09T04:51:15.502Z,98404.88
2022-12-09T04:53:43.374Z,98406.59
2022-12-09T04:56:13.845Z,98410.33
2022-12-09T04:58:41.026Z,98406.47
2022-12-09T05:01:13.724Z,98408.00
2022-12-09T05:03:41.340Z,98412.20
2022-12-09T05:06:12.912Z,98415.10
2022-12-09T05:08:41.690Z,98419.42
2022-12-09T05:11:10.019Z,98425.27
2022-12-09T05:13:37.558Z,98427.36
2022-12-09T05:16:15.400Z,98431.37
2022-12-09T05:18:45.144Z,98432.49
2022-12-09T05:21:16.517Z,98434.45
2022-12-09T05:23:44.413Z,98428.80
2022-12-09T05:26:15.280Z,98430.96
2022-12-09T05:28:42.480Z,98433.74
2022-12-09T05:31:14.671Z,98434.91
2022-12-09T05:33:43.138Z,98431.88
2022-12-09T05:36:13.166Z,98433.30
2022-12-09T05:38:41.094Z,98432.65
2022-12-09T05:41:08.265Z,98436.24
2022-12-09T05:43:36.889Z,98430.56
2022-12-09T05:46:06.052Z,98424.91
2022-12-09T05:48:34.663Z,98426.44
2022-12-09T05:51:03.586Z,98424.02
2022-12-09T05:53:32.135Z,98423.33
2022-12-09T05:55:59.235Z,98422.84
2022-12-09T05:58:26.400Z,98424.48
2022-12-09T06:00:56.392Z,98418.52
2022-12-09T06:03:24.098Z,98418.34
2022-12-09T06:14:00.361Z,98417.30
2022-12-09T06:16:59.531Z,98411.89
2022-12-09T06:19:36.874Z,98409.38
2022-12-09T06:22:15.683Z,98411.84
2022-12-09T06:25:06.982Z,98411.65
2022-12-09T06:28:11.182Z,98414.98
2022-12-09T06:35:49.897Z,98429.99
2022-12-09T06:42:27.085Z,98434.27
2022-12-09T06:44:54.521Z,98439.90
2022-12-09T06:47:21.499Z,98438.02
2022-12-09T06:50:27.902Z,98441.08
2022-12-09T06:54:03.773Z,98439.89
2022-12-09T06:57:28.035Z,98447.02
2022-12-09T07:04:06.294Z,98441.77
2022-12-09T07:11:14.714Z,98431.14
2022-12-09T07:14:22.299Z,98428.38
2022-12-09T07:17:44.680Z,98428.95
2022-12-09T07:21:04.476Z,98431.62
2022-12-09T07:25:26.204Z,98438.16
2022-12-09T07:30:26.254Z,98436.30
2022-12-09T07:49:27.619Z,98421.47
2022-12-09T07:57:31.863Z,98401.69
2022-12-09T08:08:17.746Z,98397.36
2022-12-09T08:11:35.175Z,98394.61
2022-12-09T08:14:51.299Z,98393.30
2022-12-09T08:17:41.952Z,98387.80
2022-12-09T08:20:42.040Z,98381.96
2022-12-09T08:23:25.005Z,98380.52
2022-12-09T08:26:30.823Z,98379.46
2022-12-09T08:29:26.194Z,98381.81
2022-12-09T08:32:23.303Z,98391.85
2022-12-09T08:35:17.685Z,98389.05
2022-12-09T08:39:03.574Z,98388.77
2022-12-09T08:42:05.071Z,98386.61
2022-12-09T08:45:04.751Z,98383.23
2022-12-09T08:47:32.084Z,98378.98
2022-12-09T08:50:00.892Z,98379.61
2022-12-09T08:53:19.760Z,98381.66
2022-12-09T08:56:07.917Z,98385.38
2022-12-09T08:58:45.999Z,98387.08
2022-12-09T09:01:25.145Z,98385.59
2022-12-09T09:03:56.680Z,98379.23
2022-12-09T09:06:24.985Z,98371.30
2022-12-09T09:08:58.268Z,98367.49
2022-12-09T09:11:48.864Z,98363.98
2022-12-09T09:14:27.821Z,98360.77
2022-12-09T09:16:55.281Z,98362.80
2022-12-09T09:19:25.764Z,98357.06
2022-12-09T09:21:58.720Z,98357.46
2022-12-09T09:24:56.260Z,98354.35
2022-12-09T09:27:55.973Z,98356.23
2022-12-09T09:30:22.923Z,98354.93
2022-12-09T09:32:50.463Z,98352.11
2022-12-09T09:35:17.406Z,98350.56
2022-12-09T09:37:45.253Z,98346.30
2022-12-09T09:40:12.897Z,98346.44
2022-12-09T09:42:47.832Z,98347.75
2022-12-09T09:45:19.314Z,98349.30
2022-12-09T09:47:54.405Z,98342.15
2022-12-09T09:50:37.814Z,98336.25
2022-12-09T09:53:24.044Z,98332.64
2022-12-09T09:55:58.282Z,98330.61
2022-12-09T09:58:48.791Z,98327.38
2022-12-09T10:01:18.085Z,98320.69
2022-12-09T10:03:52.170Z,98315.83
2022-12-09T10:06:35.285Z,98315.98
2022-12-09T10:09:24.061Z,98313.13
2022-12-09T10:12:00.546Z,98312.20
2022-12-09T10:14:32.313Z,98314.02
2022-12-09T10:17:15.666Z,98307.88
2022-12-09T10:19:48.139Z,98309.54
2022-12-09T10:22:21.464Z,98310.38
2022-12-09T10:25:07.380Z,98311.70
2022-12-09T10:28:17.430Z,98307.39
2022-12-09T10:30:45.318Z,98307.67
2022-12-09T10:33:14.883Z,98305.98
2022-12-09T10:35:42.382Z,98300.70
2022-12-09T10:38:20.268Z,98298.60
2022-12-09T10:40:57.075Z,98298.55
2022-12-09T10:43:39.246Z,98304.58
2022-12-09T10:46:21.740Z,98308.98
2022-12-09T10:48:49.755Z,98308.33
2022-12-09T10:51:30.234Z,98304.33
2022-12-09T10:54:13.381Z,98306.98
2022-12-09T10:57:03.650Z,98307.33
2022-12-09T10:59:32.091Z,98304.50
2022-12-09T11:02:02.017Z,98301.39
2022-12-09T11:04:32.861Z,98298.61
2022-12-09T11:07:13.102Z,98295.56
2022-12-09T11:09:49.305Z,98291.16
2022-12-09T11:12:39.921Z,98284.29
2022-12-09T11:15:10.984Z,98281.72
2022-12-09T11:17:42.422Z,98277.67
2022-12-09T11:20:21.750Z,98284.42
2022-12-09T11:23:19.869Z,98287.84
2022-12-09T11:26:20.844Z,98287.55
2022-12-09T11:29:18.603Z,98296.33
2022-12-09T11:31:47.199Z,98294.39
2022-12-09T11:34:19.880Z,98293.52
2022-12-09T11:36:52.918Z,98289.17
2022-12-09T11:39:29.202Z,98292.09
2022-12-09T11:42:45.176Z,98298.34
2022-12-09T11:45:49.184Z,98297.23
2022-12-09T11:49:15.253Z,98296.39
2022-12-09T11:52:27.533Z,98303.96
2022-12-09T12:02:54.021Z,98290.93
2022-12-09T12:06:02.199Z,98290.18
2022-12-09T12:09:14.990Z,98291.72
2022-12-09T12:13:18.413Z,98279.25
2022-12-09T12:21:35.518Z,98264.45
2022-12-09T12:33:59.751Z,98242.88
2022-12-09T12:37:04.348Z,98233.46
2022-12-09T12:40:43.402Z,98233.28
2022-12-09T12:44:32.006Z,98227.42
2022-12-09T12:48:01.378Z,98222.70
2022-12-09T12:51:07.863Z,98227.91
2022-12-09T12:54:46.342Z,98231.02
2022-12-09T12:58:19.005Z,98235.23
2022-12-09T13:01:24.769Z,98242.11
2022-12-09T13:05:10.789Z,98240.55
2022-12-09T13:13:07.820Z,98229.54
2022-12-09T13:21:21.136Z,98230.63
2022-12-09T13:25:22.575Z,98228.61
2022-12-09T13:28:52.714Z,98225.39
2022-12-09T13:32:44.566Z,98227.58
2022-12-09T13:36:30.358Z,98223.45
2022-12-09T13:40:55.009Z,98216.53
2022-12-09T13:44:45.673Z,98205.27
2022-12-09T13:48:27.996Z,98200.42
2022-12-09T13:51:41.750Z,98198.45
2022-12-09T13:55:40.799Z,98193.07
2022-12-09T14:04:00.190Z,98195.91
2022-12-09T14:07:56.420Z,98181.61
2022-12-09T14:11:57.338Z,98176.10
2022-12-09T14:19:50.139Z,98168.94
2022-12-09T14:23:33.695Z,98161.64
2022-12-09T14:44:23.696Z,98145.35
2022-12-09T14:46:54.594Z,98149.74
2022-12-09T14:49:27.842Z,98148.48
2022-12-09T14:52:00.832Z,98138.65
2022-12-09T14:54:38.569Z,98138.73
2022-12-09T14:57:19.389Z,98138.70
2022-12-09T14:59:53.061Z,98139.95
2022-12-09T15:02:30.190Z,98136.73
2022-12-09T15:05:01.629Z,98137.94
2022-12-09T15:07:34.466Z,98138.55
2022-12-09T15:10:17.488Z,98133.61
2022-12-09T15:12:49.621Z,98132.75
2022-12-09T15:15:39.805Z,98131.51
2022-12-09T15:18:22.042Z,98131.20
2022-12-09T15:20:57.007Z,98126.10
2022-12-09T15:23:28.295Z,98125.86
2022-12-09T15:25:59.115Z,98125.71
2022-12-09T15:28:32.483Z,98127.83
2022-12-09T15:31:02.287Z,98126.96
2022-12-09T15:33:38.875Z,98118.68
2022-12-09T15:36:21.869Z,98115.75
2022-12-09T15:38:58.398Z,98111.64
2022-12-09T15:41:59.638Z,98102.60
2022-12-09T15:44:32.982Z,98098.31
2022-12-09T15:47:09.853Z,98095.88
2022-12-09T15:49:57.785Z,98092.23
2022-12-09T15:52:31.607Z,98088.00
2022-12-09T15:55:06.966Z,98082.23
2022-12-09T15:57:36.038Z,98076.12
2022-12-09T16:00:05.516Z,98068.71
2022-12-09T16:02:38.196Z,98060.85
2022-12-09T16:05:09.707Z,98056.94
2022-12-09T16:07:38.500Z,98050.00
2022-12-09T16:10:10.109Z,98040.50
2022-12-09T16:12:40.271Z,98041.09
2022-12-09T16:15:12.509Z,98042.11
2022-12-09T16:17:55.630Z,98041.85
2022-12-09T16:20:34.828Z,98042.60
2022-12-09T16:23:06.214Z,98036.48
2022-12-09T16:25:43.397Z,98034.55
2022-12-09T16:28:24.327Z,98034.90
2022-12-09T16:30:58.856Z,98035.61
2022-12-09T16:33:29.197Z,98033.88
2022-12-09T16:36:05.208Z,98030.52
2022-12-09T16:38:35.638Z,98024.48
2022-12-09T16:41:08.363Z,98023.33
2022-12-09T16:43:52.184Z,98019.91
2022-12-09T16:46:20.300Z,98014.82
2022-12-09T16:48:49.788Z,98015.37
2022-12-09T16:51:25.035Z,98015.75
2022-12-09T16:53:54.452Z,98002.63
2022-12-09T16:56:28.276Z,97997.56
2022-12-09T16:58:56.991Z,97991.90
2022-12-09T17:01:34.099Z,97989.19
2022-12-09T17:04:05.731Z,97986.23
2022-12-09T17:06:33.867Z,97982.23
2022-12-09T17:09:02.006Z,97979.74
2022-12-09T17:11:30.231Z,97979.91
2022-12-09T17:13:58.488Z,97976.25
2022-12-09T17:16:26.954Z,97977.08
2022-12-09T17:18:55.384Z,97973.84
2022-12-09T17:21:23.527Z,97974.75
2022-12-09T17:23:51.698Z,97969.70
2022-12-09T17:26:20.800Z,97970.77
2022-12-09T17:28:50.304Z,97968.33
2022-12-09T17:31:21.881Z,97967.63
2022-12-09T17:33:50.966Z,97969.54
2022-12-09T17:36:19.685Z,97966.72
2022-12-09T17:38:49.500Z,97964.13
2022-12-09T17:41:20.996Z,97962.37
2022-12-09T17:43:49.544Z,97955.54
2022-12-09T17:46:18.025Z,97950.60
2022-12-09T17:48:46.197Z,97946.56
2022-12-09T17:51:18.182Z,97947.39
2022-12-09T17:53:47.638Z,97939.09
2022-12-09T17:56:20.039Z,97935.00
2022-12-09T17:58:58.472Z,97933.14
2022-12-09T18:01:27.464Z,97929.41
2022-12-09T18:04:01.586Z,97930.71
2022-12-09T18:06:34.659Z,97927.81
2022-12-09T18:09:05.265Z,97925.59
2022-12-09T18:11:34.008Z,97917.23
2022-12-09T18:14:03.164Z,97916.09
2022-12-09T18:16:31.844Z,97910.89
2022-12-09T18:19:10.406Z,97902.91
2022-12-09T18:21:39.884Z,97902.02
2022-12-09T18:24:08.847Z,97901.84
2022-12-09T18:26:41.572Z,97901.55
2022-12-09T18:29:12.183Z,97898.96
2022-12-09T18:31:40.983Z,97898.98
2022-12-09T18:34:09.051Z,97902.52
2022-12-09T18:36:37.340Z,97897.52
2022-12-09T18:39:05.510Z,97895.83
2022-12-09T18:41:34.572Z,97892.89
2022-12-09T18:44:05.466Z,97892.30
2022-12-09T18:46:37.097Z,97884.13
2022-12-09T18:49:08.325Z,97884.84
2022-12-09T18:51:37.260Z,97885.70
2022-12-09T18:54:07.215Z,97878.31
2022-12-09T18:56:37.185Z,97877.39
2022-12-09T18:59:07.031Z,97871.45
2022-12-09T19:01:40.444Z,97872.64
2022-12-09T19:04:34.433Z,97869.52
2022-12-09T19:07:04.489Z,97867.22
2022-12-09T19:09:34.950Z,97862.88
2022-12-09T19:12:37.778Z,97864.97
2022-12-09T19:14:53.216Z,97863.42
2022-12-09T19:17:22.009Z,97867.05
2022-12-09T19:19:54.132Z,97865.06
2022-12-09T19:22:26.105Z,97860.30
2022-12-09T19:24:54.721Z,97858.69
2022-12-09T19:36:10.964Z,97841.94
2022-12-09T19:51:24.509Z,97827.46
2022-12-09T19:54:02.626Z,97823.51
2022-12-09T19:56:33.807Z,97820.73
2022-12-09T19:59:16.333Z,97822.16
2022-12-09T20:01:48.476Z,97818.99
2022-12-09T20:04:48.842Z,97812.74
2022-12-09T20:07:20.110Z,97805.62
2022-12-09T20:09:53.788Z,97803.95
2022-12-09T20:12:25.340Z,97804.95
2022-12-09T20:15:00.787Z,97802.70
2022-12-09T20:17:32.219Z,97797.87
2022-12-09T20:20:07.386Z,97794.71
2022-12-09T20:22:45.342Z,97792.98
2022-12-09T20:25:23.063Z,97792.97
2022-12-09T20:27:53.881Z,97789.32
2022-12-09T20:30:29.627Z,97787.23
2022-12-09T20:32:59.332Z,97779.00
2022-12-09T20:35:28.775Z,97782.45
2022-12-09T20:37:57.422Z,97773.63
2022-12-09T20:40:27.675Z,97768.86
2022-12-09T20:43:03.869Z,97764.20
2022-12-09T20:45:39.480Z,97756.31
2022-12-09T20:48:12.822Z,97757.33
2022-12-09T20:50:52.519Z,97754.63
2022-12-09T20:53:28.337Z,97750.79
2022-12-09T20:56:01.700Z,97753.09
2022-12-09T20:58:32.698Z,97756.62
2022-12-09T21:01:09.016Z,97760.11
2022-12-09T21:03:40.310Z,97757.40
2022-12-09T21:06:15.584Z,97757.64
2022-12-09T21:08:49.557Z,97756.75
2022-12-09T21:11:24.918Z,97759.20
2022-12-09T21:13:58.780Z,97755.72
2022-12-09T21:16:37.498Z,97750.44
2022-12-09T21:19:16.724Z,97750.19
2022-12-09T21:21:53.401Z,97751.60
2022-12-09T21:24:25.157Z,97746.98
2022-12-09T21:26:57.530Z,97746.66
2022-12-09T21:29:34.154Z,97747.79
2022-12-09T21:32:03.056Z,97745.66
2022-12-09T21:34:33.884Z,97750.77
2022-12-09T21:37:05.913Z,97751.69
2022-12-09T21:40:11.733Z,97747.74
2022-12-09T21:42:43.837Z,97747.41
2022-12-09T21:45:16.842Z,97744.05
2022-12-09T21:47:51.713Z,97743.16
2022-12-09T21:50:22.006Z,97745.54
2022-12-09T21:52:52.260Z,97737.09
2022-12-09T21:55:24.565Z,97739.85
2022-12-09T21:57:57.834Z,97741.23
2022-12-09T22:00:33.631Z,97739.95
2022-12-09T22:03:11.913Z,97740.56
2022-12-09T22:05:40.712Z,97739.63
2022-12-09T22:08:31.965Z,97743.56
2022-12-09T22:11:21.997Z,97746.94
2022-12-09T22:14:01.084Z,97741.77
2022-12-09T22:16:43.131Z,97738.46
2022-12-09T22:19:21.189Z,97737.20
2022-12-09T22:21:53.050Z,97737.04
2022-12-09T22:24:35.909Z,97735.79
2022-12-09T22:27:12.255Z,97732.86
2022-12-09T22:29:55.468Z,97731.83
2022-12-09T22:32:37.840Z,97732.52
2022-12-09T22:35:16.160Z,97733.48
2022-12-09T22:37:44.889Z,97733.69
2022-12-09T22:40:23.088Z,97735.08
2022-12-09T22:42:57.932Z,97734.10
2022-12-09T22:45:27.993Z,97737.84
2022-12-09T22:48:00.514Z,97733.10
2022-12-09T22:50:50.174Z,97727.52
2022-12-09T22:53:22.149Z,97724.06
2022-12-09T22:55:56.658Z,97724.48
2022-12-09T22:58:28.563Z,97726.48
2022-12-09T23:01:00.972Z,97725.73
2022-12-09T23:03:32.443Z,97723.75
2022-12-09T23:06:03.699Z,97719.52
2022-12-09T23:08:41.027Z,97715.23
2022-12-09T23:11:24.354Z,97710.27
2022-12-09T23:13:55.701Z,97710.67
2022-12-09T23:16:50.311Z,97709.54
2022-12-09T23:19:26.469Z,97711.10
2022-12-09T23:22:00.622Z,97710.13
2022-12-09T23:24:36.003Z,97709.54
2022-12-09T23:27:08.518Z,97703.42
2022-12-09T23:29:43.018Z,97700.08
2022-12-09T23:32:25.922Z,97705.51
2022-12-09T23:35:07.077Z,97705.63
2022-12-09T23:37:42.530Z,97706.55
2022-12-09T23:40:12.019Z,97704.57
2022-12-09T23:42:40.724Z,97702.28
2022-12-09T23:45:15.615Z,97700.79
2022-12-09T23:47:57.698Z,97698.69
2022-12-09T23:50:29.447Z,97700.42
2022-12-09T23:53:03.329Z,97699.41
2022-12-09T23:55:35.228Z,97697.73
2022-12-09T23:58:11.209Z,97692.77
